sensor_id;sensor_type;location;lat;lon;timestamp;pressure;altitude;pressure_sealevel;temperature;humidity
21730;BME280;11027;51.030;13.812;2023-12-20T00:01:39;99824.50;;;7.21;85.07
21730;BME280;11027;51.030;13.812;2023-12-20T00:04:05;99819.75;;;7.15;85.02
21730;BME280;11027;51.030;13.812;2023-12-20T00:06:31;99822.16;;;7.18;85.08
21730;BME280;11027;51.030;13.812;2023-12-20T00:08:56;99824.34;;;7.22;84.95
21730;BME280;11027;51.030;13.812;2023-12-20T00:11:23;99815.03;;;7.09;84.73
21730;BME280;11027;51.030;13.812;2023-12-20T00:13:48;99818.41;;;7.11;85.04
21730;BME280;11027;51.030;13.812;2023-12-20T00:16:13;99817.56;;;7.10;85.00
21730;BME280;11027;51.030;13.812;2023-12-20T00:18:39;99809.28;;;7.04;84.94
21730;BME280;11027;51.030;13.812;2023-12-20T00:21:04;99803.03;;;7.11;84.91
21730;BME280;11027;51.030;13.812;2023-12-20T00:23:29;99807.91;;;7.08;84.51
21730;BME280;11027;51.030;13.812;2023-12-20T00:25:55;99801.31;;;7.10;84.50
21730;BME280;11027;51.030;13.812;2023-12-20T00:28:20;99803.50;;;6.98;83.36
21730;BME280;11027;51.030;13.812;2023-12-20T00:30:45;99801.47;;;7.00;83.64
21730;BME280;11027;51.030;13.812;2023-12-20T00:33:10;99801.13;;;7.04;83.74
21730;BME280;11027;51.030;13.812;2023-12-20T00:35:36;99794.88;;;7.03;83.22
21730;BME280;11027;51.030;13.812;2023-12-20T00:38:01;99812.28;;;7.00;83.29
21730;BME280;11027;51.030;13.812;2023-12-20T00:40:27;99802.78;;;6.88;83.04
21730;BME280;11027;51.030;13.812;2023-12-20T00:42:52;99809.41;;;6.86;83.50
21730;BME280;11027;51.030;13.812;2023-12-20T00:45:17;99809.22;;;6.79;83.54
21730;BME280;11027;51.030;13.812;2023-12-20T00:47:43;99808.53;;;6.77;83.99
21730;BME280;11027;51.030;13.812;2023-12-20T00:50:08;99802.09;;;6.78;83.83
21730;BME280;11027;51.030;13.812;2023-12-20T00:52:34;99793.13;;;6.77;83.71
21730;BME280;11027;51.030;13.812;2023-12-20T00:55:01;99784.63;;;6.72;83.53
21730;BME280;11027;51.030;13.812;2023-12-20T00:57:28;99781.44;;;6.69;83.57
21730;BME280;11027;51.030;13.812;2023-12-20T00:59:53;99797.88;;;6.75;83.42
21730;BME280;11027;51.030;13.812;2023-12-20T01:02:18;99786.19;;;6.75;83.09
21730;BME280;11027;51.030;13.812;2023-12-20T01:04:44;99782.47;;;6.76;82.91
21730;BME280;11027;51.030;13.812;2023-12-20T01:07:12;99784.16;;;6.77;83.00
21730;BME280;11027;51.030;13.812;2023-12-20T01:09:40;99778.38;;;6.72;82.37
21730;BME280;11027;51.030;13.812;2023-12-20T01:12:06;99773.13;;;6.70;82.58
21730;BME280;11027;51.030;13.812;2023-12-20T01:14:31;99774.00;;;6.71;82.78
21730;BME280;11027;51.030;13.812;2023-12-20T01:16:56;99769.59;;;6.70;82.75
21730;BME280;11027;51.030;13.812;2023-12-20T01:19:24;99770.25;;;6.64;82.62
21730;BME280;11027;51.030;13.812;2023-12-20T01:21:50;99771.59;;;6.59;82.62
21730;BME280;11027;51.030;13.812;2023-12-20T01:24:15;99764.69;;;6.65;82.74
21730;BME280;11027;51.030;13.812;2023-12-20T01:26:40;99765.50;;;6.66;82.43
21730;BME280;11027;51.030;13.812;2023-12-20T01:29:05;99769.56;;;6.61;82.29
21730;BME280;11027;51.030;13.812;2023-12-20T01:31:31;99764.28;;;6.52;82.57
21730;BME280;11027;51.030;13.812;2023-12-20T01:33:56;99760.59;;;6.53;82.84
21730;BME280;11027;51.030;13.812;2023-12-20T01:36:21;99758.53;;;6.47;82.61
21730;BME280;11027;51.030;13.812;2023-12-20T01:38:47;99756.16;;;6.44;82.89
21730;BME280;11027;51.030;13.812;2023-12-20T01:41:12;99760.38;;;6.46;82.95
21730;BME280;11027;51.030;13.812;2023-12-20T01:43:37;99752.94;;;6.48;82.83
21730;BME280;11027;51.030;13.812;2023-12-20T01:46:03;99749.09;;;6.59;82.88
21730;BME280;11027;51.030;13.812;2023-12-20T01:48:29;99745.88;;;6.64;82.48
21730;BME280;11027;51.030;13.812;2023-12-20T01:50:58;99745.22;;;6.70;82.33
21730;BME280;11027;51.030;13.812;2023-12-20T01:53:25;99744.69;;;6.66;82.19
21730;BME280;11027;51.030;13.812;2023-12-20T01:55:52;99756.22;;;6.68;82.17
21730;BME280;11027;51.030;13.812;2023-12-20T01:58:19;99746.72;;;6.64;81.83
21730;BME280;11027;51.030;13.812;2023-12-20T02:00:45;99748.59;;;6.64;81.84
21730;BME280;11027;51.030;13.812;2023-12-20T02:03:12;99747.88;;;6.53;81.76
21730;BME280;11027;51.030;13.812;2023-12-20T02:05:38;99746.50;;;6.41;82.07
21730;BME280;11027;51.030;13.812;2023-12-20T02:08:04;99745.44;;;6.34;82.44
21730;BME280;11027;51.030;13.812;2023-12-20T02:10:31;99746.13;;;6.36;82.63
21730;BME280;11027;51.030;13.812;2023-12-20T02:12:56;99743.78;;;6.33;82.84
21730;BME280;11027;51.030;13.812;2023-12-20T02:15:22;99736.66;;;6.32;82.68
21730;BME280;11027;51.030;13.812;2023-12-20T02:17:47;99731.44;;;6.30;82.77
21730;BME280;11027;51.030;13.812;2023-12-20T02:20:13;99731.75;;;6.27;82.64
21730;BME280;11027;51.030;13.812;2023-12-20T02:22:39;99741.34;;;6.21;82.76
21730;BME280;11027;51.030;13.812;2023-12-20T02:25:04;99732.88;;;6.16;82.72
21730;BME280;11027;51.030;13.812;2023-12-20T02:27:30;99740.31;;;6.14;83.06
21730;BME280;11027;51.030;13.812;2023-12-20T02:29:55;99726.13;;;6.12;83.27
21730;BME280;11027;51.030;13.812;2023-12-20T02:32:21;99730.19;;;6.16;83.33
21730;BME280;11027;51.030;13.812;2023-12-20T02:34:48;99721.72;;;6.19;82.89
21730;BME280;11027;51.030;13.812;2023-12-20T02:37:15;99725.13;;;6.21;83.09
21730;BME280;11027;51.030;13.812;2023-12-20T02:39:41;99718.56;;;6.24;82.69
21730;BME280;11027;51.030;13.812;2023-12-20T02:42:06;99720.53;;;6.22;82.47
21730;BME280;11027;51.030;13.812;2023-12-20T02:44:31;99711.06;;;6.18;82.66
21730;BME280;11027;51.030;13.812;2023-12-20T02:46:57;99711.44;;;6.23;82.52
21730;BME280;11027;51.030;13.812;2023-12-20T02:49:22;99703.47;;;6.21;82.41
21730;BME280;11027;51.030;13.812;2023-12-20T02:51:50;99702.09;;;6.17;82.26
21730;BME280;11027;51.030;13.812;2023-12-20T02:54:15;99707.00;;;6.14;82.23
21730;BME280;11027;51.030;13.812;2023-12-20T02:56:41;99701.78;;;6.12;82.37
21730;BME280;11027;51.030;13.812;2023-12-20T02:59:06;99711.56;;;6.13;82.48
21730;BME280;11027;51.030;13.812;2023-12-20T03:01:34;99723.03;;;6.07;82.75
21730;BME280;11027;51.030;13.812;2023-12-20T03:04:02;99724.75;;;6.08;82.85
21730;BME280;11027;51.030;13.812;2023-12-20T03:06:27;99710.34;;;6.08;82.79
21730;BME280;11027;51.030;13.812;2023-12-20T03:08:55;99711.53;;;6.05;82.17
21730;BME280;11027;51.030;13.812;2023-12-20T03:11:20;99704.69;;;5.93;82.54
21730;BME280;11027;51.030;13.812;2023-12-20T03:13:46;99702.78;;;5.85;83.14
21730;BME280;11027;51.030;13.812;2023-12-20T03:16:12;99707.66;;;5.81;83.53
21730;BME280;11027;51.030;13.812;2023-12-20T03:18:41;99696.16;;;5.79;83.77
21730;BME280;11027;51.030;13.812;2023-12-20T03:21:06;99702.59;;;5.78;83.85
21730;BME280;11027;51.030;13.812;2023-12-20T03:23:31;99704.59;;;5.76;83.94
21730;BME280;11027;51.030;13.812;2023-12-20T03:26:00;99699.50;;;5.73;84.28
21730;BME280;11027;51.030;13.812;2023-12-20T03:28:26;99690.75;;;5.79;84.43
21730;BME280;11027;51.030;13.812;2023-12-20T03:30:52;99688.47;;;5.93;84.55
21730;BME280;11027;51.030;13.812;2023-12-20T03:33:17;99677.97;;;5.90;84.33
21730;BME280;11027;51.030;13.812;2023-12-20T03:35:47;99679.97;;;5.88;84.19
21730;BME280;11027;51.030;13.812;2023-12-20T03:38:12;99684.00;;;5.84;84.15
21730;BME280;11027;51.030;13.812;2023-12-20T03:40:37;99662.59;;;5.90;84.50
21730;BME280;11027;51.030;13.812;2023-12-20T03:43:03;99681.06;;;5.95;84.50
21730;BME280;11027;51.030;13.812;2023-12-20T03:45:28;99688.19;;;5.96;84.20
21730;BME280;11027;51.030;13.812;2023-12-20T03:47:53;99697.53;;;5.84;84.25
21730;BME280;11027;51.030;13.812;2023-12-20T03:50:25;99679.94;;;5.79;84.60
21730;BME280;11027;51.030;13.812;2023-12-20T03:52:50;99679.25;;;5.77;84.98
21730;BME280;11027;51.030;13.812;2023-12-20T03:55:16;99687.69;;;5.74;85.21
21730;BME280;11027;51.030;13.812;2023-12-20T03:57:41;99682.31;;;5.74;85.40
21730;BME280;11027;51.030;13.812;2023-12-20T04:00:07;99679.59;;;5.74;85.42
21730;BME280;11027;51.030;13.812;2023-12-20T04:02:39;99693.25;;;5.73;85.74
21730;BME280;11027;51.030;13.812;2023-12-20T04:05:05;99687.31;;;5.69;85.89
21730;BME280;11027;51.030;13.812;2023-12-20T04:07:31;99690.03;;;5.69;85.80
21730;BME280;11027;51.030;13.812;2023-12-20T04:09:56;99675.53;;;5.70;86.00
21730;BME280;11027;51.030;13.812;2023-12-20T04:12:22;99675.88;;;5.75;85.86
21730;BME280;11027;51.030;13.812;2023-12-20T04:14:47;99683.50;;;5.80;85.78
21730;BME280;11027;51.030;13.812;2023-12-20T04:17:12;99683.03;;;5.85;85.71
21730;BME280;11027;51.030;13.812;2023-12-20T04:19:38;99677.13;;;5.89;85.78
21730;BME280;11027;51.030;13.812;2023-12-20T04:22:03;99691.66;;;5.88;85.68
21730;BME280;11027;51.030;13.812;2023-12-20T04:24:28;99676.66;;;5.94;85.53
21730;BME280;11027;51.030;13.812;2023-12-20T04:26:54;99677.66;;;5.93;85.63
21730;BME280;11027;51.030;13.812;2023-12-20T04:29:19;99682.69;;;5.88;85.86
21730;BME280;11027;51.030;13.812;2023-12-20T04:31:44;99677.13;;;5.89;86.14
21730;BME280;11027;51.030;13.812;2023-12-20T04:34:10;99681.06;;;5.95;86.19
21730;BME280;11027;51.030;13.812;2023-12-20T04:36:35;99684.47;;;5.97;86.19
21730;BME280;11027;51.030;13.812;2023-12-20T04:39:00;99676.97;;;5.91;86.38
21730;BME280;11027;51.030;13.812;2023-12-20T04:41:26;99689.50;;;5.92;86.33
21730;BME280;11027;51.030;13.812;2023-12-20T04:43:52;99670.25;;;5.95;86.56
21730;BME280;11027;51.030;13.812;2023-12-20T04:46:17;99683.78;;;5.95;86.55
21730;BME280;11027;51.030;13.812;2023-12-20T04:48:43;99677.38;;;5.96;86.72
21730;BME280;11027;51.030;13.812;2023-12-20T04:51:08;99682.44;;;5.99;86.68
21730;BME280;11027;51.030;13.812;2023-12-20T04:53:33;99685.59;;;5.94;86.91
21730;BME280;11027;51.030;13.812;2023-12-20T04:55:58;99695.06;;;5.90;86.83
21730;BME280;11027;51.030;13.812;2023-12-20T04:58:24;99684.88;;;5.84;87.16
21730;BME280;11027;51.030;13.812;2023-12-20T05:00:49;99689.13;;;5.87;87.49
21730;BME280;11027;51.030;13.812;2023-12-20T05:03:14;99686.94;;;5.90;87.73
21730;BME280;11027;51.030;13.812;2023-12-20T05:05:39;99688.47;;;5.93;87.48
21730;BME280;11027;51.030;13.812;2023-12-20T05:08:05;99691.56;;;5.98;87.69
21730;BME280;11027;51.030;13.812;2023-12-20T05:10:30;99683.78;;;5.95;87.62
21730;BME280;11027;51.030;13.812;2023-12-20T05:12:55;99682.78;;;5.96;87.90
21730;BME280;11027;51.030;13.812;2023-12-20T05:15:21;99682.44;;;5.99;87.99
21730;BME280;11027;51.030;13.812;2023-12-20T05:17:46;99688.69;;;5.99;88.11
21730;BME280;11027;51.030;13.812;2023-12-20T05:20:11;99685.13;;;5.99;88.06
21730;BME280;11027;51.030;13.812;2023-12-20T05:22:36;99675.38;;;6.06;88.26
21730;BME280;11027;51.030;13.812;2023-12-20T05:25:02;99681.50;;;6.16;88.08
21730;BME280;11027;51.030;13.812;2023-12-20T05:27:27;99692.34;;;6.25;87.69
21730;BME280;11027;51.030;13.812;2023-12-20T05:29:52;99695.03;;;6.25;87.61
21730;BME280;11027;51.030;13.812;2023-12-20T05:32:18;99704.66;;;6.19;87.62
21730;BME280;11027;51.030;13.812;2023-12-20T05:34:43;99708.16;;;6.11;87.70
21730;BME280;11027;51.030;13.812;2023-12-20T05:37:08;99706.97;;;6.06;88.07
21730;BME280;11027;51.030;13.812;2023-12-20T05:39:33;99700.88;;;6.04;88.29
21730;BME280;11027;51.030;13.812;2023-12-20T05:41:59;99700.03;;;6.03;88.59
21730;BME280;11027;51.030;13.812;2023-12-20T05:44:24;99696.34;;;6.04;88.80
21730;BME280;11027;51.030;13.812;2023-12-20T05:46:50;99705.09;;;5.98;88.65
21730;BME280;11027;51.030;13.812;2023-12-20T05:49:15;99715.50;;;5.93;89.22
21730;BME280;11027;51.030;13.812;2023-12-20T05:51:40;99722.63;;;5.94;89.28
21730;BME280;11027;51.030;13.812;2023-12-20T05:54:05;99712.13;;;5.91;89.42
21730;BME280;11027;51.030;13.812;2023-12-20T05:56:31;99728.63;;;5.88;89.41
21730;BME280;11027;51.030;13.812;2023-12-20T05:58:56;99716.47;;;5.84;89.51
21730;BME280;11027;51.030;13.812;2023-12-20T06:01:21;99718.16;;;5.85;89.92
21730;BME280;11027;51.030;13.812;2023-12-20T06:03:46;99726.97;;;5.87;89.98
21730;BME280;11027;51.030;13.812;2023-12-20T06:06:12;99729.97;;;5.84;90.34
21730;BME280;11027;51.030;13.812;2023-12-20T06:08:40;99736.06;;;5.86;90.38
21730;BME280;11027;51.030;13.812;2023-12-20T06:11:06;99731.69;;;5.85;90.48
21730;BME280;11027;51.030;13.812;2023-12-20T06:13:31;99726.97;;;5.87;90.33
21730;BME280;11027;51.030;13.812;2023-12-20T06:15:56;99732.69;;;5.84;90.45
21730;BME280;11027;51.030;13.812;2023-12-20T06:18:22;99729.13;;;5.83;90.69
21730;BME280;11027;51.030;13.812;2023-12-20T06:20:47;99731.53;;;5.86;90.72
21730;BME280;11027;51.030;13.812;2023-12-20T06:23:12;99724.94;;;5.89;90.44
21730;BME280;11027;51.030;13.812;2023-12-20T06:25:38;99730.34;;;5.89;90.51
21730;BME280;11027;51.030;13.812;2023-12-20T06:28:03;99723.75;;;5.91;90.54
21730;BME280;11027;51.030;13.812;2023-12-20T06:30:28;99726.16;;;5.94;90.40
21730;BME280;11027;51.030;13.812;2023-12-20T06:32:54;99723.34;;;5.96;90.09
21730;BME280;11027;51.030;13.812;2023-12-20T06:35:19;99739.00;;;5.92;89.99
21730;BME280;11027;51.030;13.812;2023-12-20T06:37:45;99732.38;;;5.87;90.19
21730;BME280;11027;51.030;13.812;2023-12-20T06:40:10;99742.50;;;5.85;90.35
21730;BME280;11027;51.030;13.812;2023-12-20T06:42:36;99743.19;;;5.87;90.27
21730;BME280;11027;51.030;13.812;2023-12-20T06:45:01;99744.88;;;5.88;90.25
21730;BME280;11027;51.030;13.812;2023-12-20T06:47:26;99763.34;;;5.92;90.22
21730;BME280;11027;51.030;13.812;2023-12-20T06:49:52;99767.19;;;5.90;90.37
21730;BME280;11027;51.030;13.812;2023-12-20T06:52:17;99774.25;;;5.82;90.86
21730;BME280;11027;51.030;13.812;2023-12-20T06:54:42;99761.38;;;5.76;91.88
21730;BME280;11027;51.030;13.812;2023-12-20T06:57:07;99770.47;;;5.75;92.64
21730;BME280;11027;51.030;13.812;2023-12-20T06:59:38;99770.53;;;5.84;93.08
21730;BME280;11027;51.030;13.812;2023-12-20T07:02:03;99778.63;;;5.84;93.25
21730;BME280;11027;51.030;13.812;2023-12-20T07:04:30;99770.03;;;5.80;93.41
21730;BME280;11027;51.030;13.812;2023-12-20T07:06:55;99774.56;;;5.79;93.77
21730;BME280;11027;51.030;13.812;2023-12-20T07:09:22;99778.59;;;5.75;93.79
21730;BME280;11027;51.030;13.812;2023-12-20T07:11:47;99774.56;;;5.79;94.16
21730;BME280;11027;51.030;13.812;2023-12-20T07:14:13;99779.66;;;5.82;94.20
21730;BME280;11027;51.030;13.812;2023-12-20T07:16:39;99779.66;;;5.82;93.78
21730;BME280;11027;51.030;13.812;2023-12-20T07:19:05;99784.03;;;5.84;93.27
21730;BME280;11027;51.030;13.812;2023-12-20T07:21:30;99771.59;;;5.91;92.88
21730;BME280;11027;51.030;13.812;2023-12-20T07:23:55;99782.09;;;5.94;92.42
21730;BME280;11027;51.030;13.812;2023-12-20T07:26:21;99789.53;;;5.92;91.97
21730;BME280;11027;51.030;13.812;2023-12-20T07:28:47;99793.91;;;5.93;91.51
21730;BME280;11027;51.030;13.812;2023-12-20T07:31:12;99790.59;;;5.99;91.47
21730;BME280;11027;51.030;13.812;2023-12-20T07:33:38;99785.19;;;5.99;90.95
21730;BME280;11027;51.030;13.812;2023-12-20T07:36:03;99788.66;;;5.91;90.58
21730;BME280;11027;51.030;13.812;2023-12-20T07:38:29;99798.09;;;5.87;90.59
21730;BME280;11027;51.030;13.812;2023-12-20T07:40:54;99780.00;;;5.88;90.57
21730;BME280;11027;51.030;13.812;2023-12-20T07:43:19;99777.31;;;5.88;90.53
21730;BME280;11027;51.030;13.812;2023-12-20T07:45:44;99779.56;;;5.92;90.44
21730;BME280;11027;51.030;13.812;2023-12-20T07:48:10;99782.81;;;5.96;90.30
21730;BME280;11027;51.030;13.812;2023-12-20T07:50:35;99794.81;;;6.01;90.35
21730;BME280;11027;51.030;13.812;2023-12-20T07:53:00;99792.31;;;6.00;90.03
21730;BME280;11027;51.030;13.812;2023-12-20T07:55:26;99786.91;;;6.00;89.71
21730;BME280;11027;51.030;13.812;2023-12-20T07:57:52;99777.41;;;5.96;89.27
21730;BME280;11027;51.030;13.812;2023-12-20T08:00:17;99766.19;;;5.91;89.10
21730;BME280;11027;51.030;13.812;2023-12-20T08:02:43;99766.50;;;5.88;89.29
21730;BME280;11027;51.030;13.812;2023-12-20T08:05:08;99765.66;;;5.87;89.09
21730;BME280;11027;51.030;13.812;2023-12-20T08:07:33;99787.28;;;5.87;89.14
21730;BME280;11027;51.030;13.812;2023-12-20T08:09:58;99789.44;;;5.84;88.88
21730;BME280;11027;51.030;13.812;2023-12-20T08:12:24;99781.03;;;5.87;88.80
21730;BME280;11027;51.030;13.812;2023-12-20T08:14:52;99784.13;;;5.92;88.65
21730;BME280;11027;51.030;13.812;2023-12-20T08:17:17;99790.06;;;5.95;88.31
21730;BME280;11027;51.030;13.812;2023-12-20T08:19:44;99795.31;;;5.97;87.98
21730;BME280;11027;51.030;13.812;2023-12-20T08:22:09;99797.72;;;6.00;87.12
21730;BME280;11027;51.030;13.812;2023-12-20T08:24:34;99800.13;;;6.11;86.82
21730;BME280;11027;51.030;13.812;2023-12-20T08:26:59;99797.81;;;6.16;85.87
21730;BME280;11027;51.030;13.812;2023-12-20T08:29:24;99801.19;;;6.18;84.50
21730;BME280;11027;51.030;13.812;2023-12-20T08:31:53;99806.50;;;6.28;83.84
21730;BME280;11027;51.030;13.812;2023-12-20T08:34:22;99812.41;;;6.32;83.30
21730;BME280;11027;51.030;13.812;2023-12-20T08:36:48;99795.53;;;6.38;82.96
21730;BME280;11027;51.030;13.812;2023-12-20T08:39:13;99798.59;;;6.43;82.38
21730;BME280;11027;51.030;13.812;2023-12-20T08:41:39;99792.38;;;6.51;82.21
21730;BME280;11027;51.030;13.812;2023-12-20T08:44:04;99790.50;;;6.51;81.23
21730;BME280;11027;51.030;13.812;2023-12-20T08:46:29;99782.03;;;6.54;80.59
21730;BME280;11027;51.030;13.812;2023-12-20T08:48:55;99800.38;;;6.60;80.30
21730;BME280;11027;51.030;13.812;2023-12-20T08:51:20;99797.47;;;6.62;79.77
21730;BME280;11027;51.030;13.812;2023-12-20T08:53:47;99789.19;;;6.64;79.42
21730;BME280;11027;51.030;13.812;2023-12-20T08:56:13;99796.31;;;6.65;79.33
21730;BME280;11027;51.030;13.812;2023-12-20T08:58:39;99803.41;;;6.66;78.76
21730;BME280;11027;51.030;13.812;2023-12-20T09:01:04;99822.34;;;6.57;77.53
21730;BME280;11027;51.030;13.812;2023-12-20T09:03:29;99804.88;;;6.52;78.09
21730;BME280;11027;51.030;13.812;2023-12-20T09:05:54;99809.06;;;6.46;77.57
21730;BME280;11027;51.030;13.812;2023-12-20T09:08:20;99810.41;;;6.42;77.71
21730;BME280;11027;51.030;13.812;2023-12-20T09:10:45;99812.81;;;6.45;76.15
21730;BME280;11027;51.030;13.812;2023-12-20T09:13:10;99809.59;;;6.50;74.63
21730;BME280;11027;51.030;13.812;2023-12-20T09:15:35;99792.41;;;6.59;74.34
21730;BME280;11027;51.030;13.812;2023-12-20T09:18:01;99807.63;;;6.68;72.93
21730;BME280;11027;51.030;13.812;2023-12-20T09:20:26;99803.44;;;6.74;72.69
21730;BME280;11027;51.030;13.812;2023-12-20T09:22:52;99808.88;;;6.82;72.59
21730;BME280;11027;51.030;13.812;2023-12-20T09:25:18;99804.50;;;6.89;72.51
21730;BME280;11027;51.030;13.812;2023-12-20T09:27:43;99808.22;;;6.88;72.05
21730;BME280;11027;51.030;13.812;2023-12-20T09:30:08;99810.22;;;6.86;72.14
21730;BME280;11027;51.030;13.812;2023-12-20T09:32:34;99809.56;;;6.92;72.47
21730;BME280;11027;51.030;13.812;2023-12-20T09:34:59;99808.91;;;6.98;72.50
21730;BME280;11027;51.030;13.812;2023-12-20T09:37:28;99800.31;;;7.03;72.67
21730;BME280;11027;51.030;13.812;2023-12-20T09:39:53;99790.31;;;7.04;72.61
21730;BME280;11027;51.030;13.812;2023-12-20T09:42:47;99781.16;;;7.05;72.88
21730;BME280;11027;51.030;13.812;2023-12-20T09:45:15;99778.63;;;7.03;73.01
21730;BME280;11027;51.030;13.812;2023-12-20T09:47:43;99792.66;;;7.07;73.16
21730;BME280;11027;51.030;13.812;2023-12-20T09:50:09;99789.63;;;7.10;72.24
21730;BME280;11027;51.030;13.812;2023-12-20T09:52:36;99780.84;;;7.08;72.27
21730;BME280;11027;51.030;13.812;2023-12-20T09:55:04;99778.28;;;7.22;72.55
21730;BME280;11027;51.030;13.812;2023-12-20T09:57:31;99785.25;;;7.33;72.00
21730;BME280;11027;51.030;13.812;2023-12-20T09:59:56;99777.47;;;7.38;72.06
21730;BME280;11027;51.030;13.812;2023-12-20T10:02:24;99765.09;;;7.44;71.65
21730;BME280;11027;51.030;13.812;2023-12-20T10:04:51;99769.47;;;7.53;71.47
21730;BME280;11027;51.030;13.812;2023-12-20T10:07:16;99765.59;;;7.64;70.86
21730;BME280;11027;51.030;13.812;2023-12-20T10:09:42;99749.97;;;7.74;70.89
21730;BME280;11027;51.030;13.812;2023-12-20T10:12:07;99760.66;;;7.76;70.76
21730;BME280;11027;51.030;13.812;2023-12-20T10:14:33;99757.09;;;7.67;69.78
21730;BME280;11027;51.030;13.812;2023-12-20T10:17:05;99771.53;;;7.68;70.18
21730;BME280;11027;51.030;13.812;2023-12-20T10:19:32;99754.38;;;7.67;69.96
21730;BME280;11027;51.030;13.812;2023-12-20T10:21:59;99748.66;;;7.62;69.89
21730;BME280;11027;51.030;13.812;2023-12-20T10:24:24;99750.69;;;7.52;69.45
21730;BME280;11027;51.030;13.812;2023-12-20T10:27:01;99742.06;;;7.48;69.84
21730;BME280;11027;51.030;13.812;2023-12-20T10:29:31;99741.53;;;7.53;69.45
21730;BME280;11027;51.030;13.812;2023-12-20T10:31:57;99740.84;;;7.59;69.71
21730;BME280;11027;51.030;13.812;2023-12-20T10:34:23;99748.13;;;7.67;68.87
21730;BME280;11027;51.030;13.812;2023-12-20T10:36:48;99732.38;;;7.70;68.90
21730;BME280;11027;51.030;13.812;2023-12-20T10:39:14;99729.97;;;7.75;68.87
21730;BME280;11027;51.030;13.812;2023-12-20T10:41:41;99747.94;;;7.76;68.03
21730;BME280;11027;51.030;13.812;2023-12-20T10:44:08;99742.84;;;7.73;67.57
21730;BME280;11027;51.030;13.812;2023-12-20T10:46:36;99736.25;;;7.76;67.34
21730;BME280;11027;51.030;13.812;2023-12-20T10:49:02;99724.22;;;7.78;67.00
21730;BME280;11027;51.030;13.812;2023-12-20T10:51:28;99734.03;;;7.71;66.39
21730;BME280;11027;51.030;13.812;2023-12-20T10:53:55;99714.75;;;7.66;66.36
21730;BME280;11027;51.030;13.812;2023-12-20T10:56:21;99714.06;;;7.72;66.67
21730;BME280;11027;51.030;13.812;2023-12-20T10:58:49;99702.66;;;7.85;67.01
21730;BME280;11027;51.030;13.812;2023-12-20T11:01:16;99705.84;;;7.97;66.61
21730;BME280;11027;51.030;13.812;2023-12-20T11:03:51;99719.75;;;8.02;65.87
21730;BME280;11027;51.030;13.812;2023-12-20T11:06:36;99744.66;;;7.97;64.32
21730;BME280;11027;51.030;13.812;2023-12-20T11:09:20;99727.25;;;7.92;64.32
21730;BME280;11027;51.030;13.812;2023-12-20T11:12:09;99723.19;;;7.88;64.03
21730;BME280;11027;51.030;13.812;2023-12-20T11:14:42;99703.84;;;7.91;64.51
21730;BME280;11027;51.030;13.812;2023-12-20T11:17:10;99698.75;;;7.96;63.96
21730;BME280;11027;51.030;13.812;2023-12-20T11:22:25;99710.41;;;8.05;63.16
21730;BME280;11027;51.030;13.812;2023-12-20T11:24:52;99698.03;;;8.02;62.47
21730;BME280;11027;51.030;13.812;2023-12-20T11:27:19;99695.34;;;7.94;61.79
21730;BME280;11027;51.030;13.812;2023-12-20T11:29:52;99694.69;;;7.92;62.11
21730;BME280;11027;51.030;13.812;2023-12-20T11:34:59;99713.88;;;7.82;63.04
21730;BME280;11027;51.030;13.812;2023-12-20T11:37:29;99704.88;;;7.73;63.28
21730;BME280;11027;51.030;13.812;2023-12-20T11:40:07;99696.94;;;7.72;63.44
21730;BME280;11027;51.030;13.812;2023-12-20T11:42:41;99700.16;;;7.67;63.64
21730;BME280;11027;51.030;13.812;2023-12-20T11:45:11;99687.97;;;7.63;63.70
21730;BME280;11027;51.030;13.812;2023-12-20T11:47:40;99707.97;;;7.62;63.61
21730;BME280;11027;51.030;13.812;2023-12-20T11:50:05;99692.03;;;7.59;64.21
21730;BME280;11027;51.030;13.812;2023-12-20T11:52:31;99697.84;;;7.56;63.89
21730;BME280;11027;51.030;13.812;2023-12-20T11:54:57;99669.03;;;7.55;63.74
21730;BME280;11027;51.030;13.812;2023-12-20T11:57:22;99682.75;;;7.61;64.23
21730;BME280;11027;51.030;13.812;2023-12-20T11:59:48;99691.03;;;7.68;63.97
21730;BME280;11027;51.030;13.812;2023-12-20T12:02:13;99656.97;;;7.66;63.44
21730;BME280;11027;51.030;13.812;2023-12-20T12:04:41;99649.69;;;7.66;63.52
21730;BME280;11027;51.030;13.812;2023-12-20T12:07:06;99665.78;;;7.68;63.72
21730;BME280;11027;51.030;13.812;2023-12-20T12:09:32;99646.81;;;7.68;63.48
21730;BME280;11027;51.030;13.812;2023-12-20T12:11:57;99645.59;;;7.70;63.19
21730;BME280;11027;51.030;13.812;2023-12-20T12:14:29;99638.63;;;7.76;63.03
21730;BME280;11027;51.030;13.812;2023-12-20T12:16:54;99677.94;;;7.80;62.14
21730;BME280;11027;51.030;13.812;2023-12-20T12:19:21;99636.59;;;7.78;62.79
21730;BME280;11027;51.030;13.812;2023-12-20T12:21:51;99650.97;;;7.87;63.00
21730;BME280;11027;51.030;13.812;2023-12-20T12:24:31;99639.41;;;7.93;62.78
21730;BME280;11027;51.030;13.812;2023-12-20T12:27:06;99627.56;;;7.94;62.27
21730;BME280;11027;51.030;13.812;2023-12-20T12:29:37;99629.94;;;7.89;62.50
21730;BME280;11027;51.030;13.812;2023-12-20T12:32:18;99645.19;;;7.90;62.31
21730;BME280;11027;51.030;13.812;2023-12-20T12:34:44;99624.47;;;7.97;62.08
21730;BME280;11027;51.030;13.812;2023-12-20T12:37:09;99612.19;;;8.09;61.79
21730;BME280;11027;51.030;13.812;2023-12-20T12:39:35;99597.84;;;8.24;61.75
21730;BME280;11027;51.030;13.812;2023-12-20T12:42:00;99603.81;;;8.50;61.33
21730;BME280;11027;51.030;13.812;2023-12-20T12:44:25;99604.16;;;8.70;60.52
21730;BME280;11027;51.030;13.812;2023-12-20T12:46:51;99598.81;;;8.85;59.90
21730;BME280;11027;51.030;13.812;2023-12-20T12:49:18;99598.13;;;8.83;58.92
21730;BME280;11027;51.030;13.812;2023-12-20T12:51:43;99613.69;;;8.89;59.22
21730;BME280;11027;51.030;13.812;2023-12-20T12:54:09;99592.31;;;8.86;58.76
21730;BME280;11027;51.030;13.812;2023-12-20T12:56:35;99582.78;;;8.90;59.07
21730;BME280;11027;51.030;13.812;2023-12-20T12:59:01;99600.00;;;8.82;59.19
21730;BME280;11027;51.030;13.812;2023-12-20T13:01:26;99596.44;;;8.82;59.16